Terminal Aerodrome Forecast
Issued by NWS

Home | Current Version | Previous Version | Text Only | Print | Product List | Glossary On
Versions: 1 2 3 4 5 6 7 8 9 10 11 12 13 14 15 16 17 18 19 20
000
FTUS43 KOAX 222339
TAFCDR
TAF
KCDR 222339Z 2300/2324 15012KT P6SM SCT020 OVC035
     FM230200 16012KT P6SM OVC015
     FM230500 18007KT 4SM BR OVC005
     FM231000 14006KT 1SM BR OVC001
     FM231500 14010KT 4SM BR OVC005
     FM231800 11013KT P6SM VCSH OVC015=

USA.gov is the U.S. government's official web portal to all federal, state and local government web resources and services.